Time;durP1;ratioP1;P1;durP2;ratioP2;P2;SDS_P1;SDS_P2;PMS_P1;PMS_P2;Temp;Humidity;BMP_temperature;BMP_pressure;BME280_temperature;BME280_humidity;BME280_pressure;Samples;Min_cycle;Max_cycle;Signal;HPM_P1;HPM_P2
2022/11/19 00:01:27;;;;;;;13.73;3.90;;;18.00;99.90;;;;;;5066333;28;20071;-74
2022/11/19 00:03:55;;;;;;;10.80;5.05;;;18.00;99.90;;;;;;5071804;28;20041;-74
2022/11/19 00:06:25;;;;;;;8.02;4.45;;;18.00;99.90;;;;;;5055566;28;20048;-74
2022/11/19 00:08:53;;;;;;;10.95;5.20;;;18.00;99.90;;;;;;5067668;28;20051;-72
2022/11/19 00:14:12;;;;;;;19.05;5.78;;;18.00;99.90;;;;;;5073707;28;20052;-73
2022/11/19 00:16:42;;;;;;;10.05;3.90;;;18.00;99.90;;;;;;5067128;28;20063;-73
2022/11/19 00:19:11;;;;;;;8.68;4.38;;;18.00;99.90;;;;;;5071124;28;20055;-73
2022/11/19 00:21:39;;;;;;;9.55;3.90;;;18.00;99.90;;;;;;5057690;28;20041;-73
2022/11/19 00:24:07;;;;;;;13.35;5.78;;;18.00;99.90;;;;;;5063772;28;20063;-73
2022/11/19 00:26:35;;;;;;;12.20;5.30;;;18.00;99.90;;;;;;5067496;28;20145;-73
2022/11/19 00:29:03;;;;;;;15.52;5.22;;;17.90;99.90;;;;;;5067473;28;20058;-73
2022/11/19 00:31:31;;;;;;;13.45;5.45;;;17.90;99.90;;;;;;5062682;28;20128;-73
2022/11/19 00:33:58;;;;;;;15.23;5.53;;;17.90;99.90;;;;;;5067218;28;20133;-73
2022/11/19 00:36:26;;;;;;;12.90;5.32;;;17.90;99.90;;;;;;5072991;28;20037;-73
2022/11/19 00:38:54;;;;;;;14.52;4.88;;;17.90;99.90;;;;;;5074003;28;20457;-73
2022/11/19 00:41:21;;;;;;;9.38;4.43;;;17.80;99.90;;;;;;5041322;28;20059;-74
2022/11/19 00:43:49;;;;;;;15.05;4.28;;;17.90;99.90;;;;;;5050517;28;20060;-73
2022/11/19 00:46:18;;;;;;;14.10;5.53;;;17.90;99.90;;;;;;5061647;28;20079;-73
2022/11/19 00:48:47;;;;;;;9.75;4.38;;;17.90;99.90;;;;;;5062206;28;20064;-73
2022/11/19 00:51:16;;;;;;;11.60;4.57;;;17.90;99.90;;;;;;5051947;28;20391;-73
2022/11/19 00:53:44;;;;;;;10.35;4.00;;;17.80;99.90;;;;;;5074013;28;20419;-73
2022/11/19 00:56:14;;;;;;;12.05;4.35;;;17.80;99.90;;;;;;5050491;28;20074;-73
2022/11/19 00:58:42;;;;;;;7.85;4.30;;;17.70;99.90;;;;;;5069432;28;20502;-73
2022/11/19 01:01:12;;;;;;;8.55;3.30;;;17.60;99.90;;;;;;5065429;28;20411;-73
2022/11/19 01:03:40;;;;;;;6.15;2.85;;;17.50;99.90;;;;;;5057404;28;20044;-73
2022/11/19 01:06:09;;;;;;;5.05;3.13;;;17.40;99.90;;;;;;5049600;28;20076;-73
2022/11/19 01:08:37;;;;;;;7.82;2.53;;;17.40;99.90;;;;;;5061443;28;20040;-73
2022/11/19 01:11:10;;;;;;;8.90;3.72;;;17.30;99.90;;;;;;5058342;28;20064;-73
2022/11/19 01:13:38;;;;;;;3.58;2.25;;;17.40;99.90;;;;;;5058317;28;20049;-74
2022/11/19 01:16:09;;;;;;;5.82;2.78;;;17.40;99.90;;;;;;5073119;28;20032;-72
2022/11/19 01:18:38;;;;;;;5.03;2.40;;;17.40;99.90;;;;;;5050794;28;20044;-73
2022/11/19 01:21:07;;;;;;;6.57;2.40;;;17.50;99.90;;;;;;5071999;28;20071;-73
2022/11/19 01:23:34;;;;;;;12.95;2.83;;;17.60;99.90;;;;;;5082542;28;20045;-73
2022/11/19 01:26:02;;;;;;;6.45;1.98;;;17.60;99.90;;;;;;5081005;28;20134;-73
2022/11/19 01:28:35;;;;;;;7.65;2.60;;;17.60;99.90;;;;;;5049074;28;20202;-73
2022/11/19 01:31:07;;;;;;;7.75;3.38;;;17.60;99.90;;;;;;5068350;28;20062;-72
2022/11/19 01:33:35;;;;;;;13.13;4.45;;;17.70;99.90;;;;;;5073679;28;20472;-72
2022/11/19 01:36:06;;;;;;;8.70;3.67;;;17.70;99.90;;;;;;5049808;28;20045;-72
2022/11/19 01:38:34;;;;;;;6.65;2.58;;;17.70;99.90;;;;;;5056016;28;20757;-72
2022/11/19 01:41:04;;;;;;;5.65;2.30;;;17.70;99.90;;;;;;5045380;28;20110;-72
2022/11/19 01:43:43;;;;;;;6.82;2.03;;;17.70;99.90;;;;;;5045013;28;20053;-72
2022/11/19 01:46:15;;;;;;;7.95;2.70;;;17.60;99.90;;;;;;5047600;28;20055;-72
2022/11/19 01:48:50;;;;;;;7.30;2.80;;;17.60;99.90;;;;;;5063326;28;20124;-72
2022/11/19 01:51:32;;;;;;;6.13;2.38;;;17.60;99.90;;;;;;5047075;28;20110;-72
2022/11/19 01:54:05;;;;;;;5.97;3.40;;;17.60;99.90;;;;;;5063425;28;20229;-72
2022/11/19 01:56:32;;;;;;;5.75;2.65;;;17.60;99.90;;;;;;5044817;28;20079;-72
2022/11/19 01:59:07;;;;;;;8.70;2.90;;;17.60;99.90;;;;;;5046380;28;20049;-72
2022/11/19 02:01:36;;;;;;;6.85;2.45;;;17.60;99.90;;;;;;5045842;28;20056;-72
2022/11/19 02:04:05;;;;;;;6.72;2.78;;;17.50;99.90;;;;;;5046623;28;20048;-72
2022/11/19 02:06:35;;;;;;;5.88;3.25;;;17.50;99.90;;;;;;5029655;28;20080;-72
2022/11/19 02:09:04;;;;;;;7.53;3.22;;;17.40;99.90;;;;;;5030889;28;20080;-72
2022/11/19 02:11:49;;;;;;;7.78;2.83;;;17.30;99.90;;;;;;5053638;28;20039;-72
2022/11/19 02:14:23;;;;;;;5.57;3.28;;;17.30;99.90;;;;;;5065981;28;20429;-72
2022/11/19 02:17:15;;;;;;;5.95;2.97;;;17.20;99.90;;;;;;5066890;28;20044;-72
2022/11/19 02:20:22;;;;;;;5.55;2.33;;;17.20;99.90;;;;;;5066927;28;20053;-72
2022/11/19 02:23:08;;;;;;;;;;;17.10;99.90;;;;;;5068446;28;20440;-72
2022/11/19 02:25:55;;;;;;;9.13;3.67;;;17.10;99.90;;;;;;5050436;28;20030;-72
2022/11/19 02:28:52;;;;;;;8.20;3.75;;;17.10;99.90;;;;;;5049760;28;20167;-72
2022/11/19 02:31:40;;;;;;;6.18;2.35;;;17.00;99.90;;;;;;5066583;28;20110;-72
2022/11/19 02:34:45;;;;;;;4.93;2.78;;;17.00;99.90;;;;;;5066746;28;20050;-72
2022/11/19 02:37:22;;;;;;;6.13;2.38;;;17.00;99.90;;;;;;5066742;28;20044;-72
2022/11/19 02:39:51;;;;;;;12.23;2.40;;;17.00;99.90;;;;;;5067124;28;20063;-72
2022/11/19 02:42:42;;;;;;;4.68;2.72;;;17.00;99.90;;;;;;5066924;28;20135;-72
2022/11/19 02:45:45;;;;;;;6.60;3.22;;;17.00;99.90;;;;;;5051802;28;20123;-72
2022/11/19 02:48:24;;;;;;;5.32;2.33;;;17.00;99.90;;;;;;5061019;28;20052;-73
2022/11/19 02:51:03;;;;;;;5.22;2.78;;;17.00;99.90;;;;;;5071190;28;20036;-72
2022/11/19 02:53:32;;;;;;;5.28;2.80;;;17.00;99.90;;;;;;5053834;28;20056;-72
2022/11/19 02:56:12;;;;;;;6.15;3.08;;;16.90;99.90;;;;;;5052389;28;20102;-72
2022/11/19 03:04:29;;;;;;;9.00;3.15;;;16.60;99.90;;;;;;5053166;28;20095;-72
2022/11/19 03:07:05;;;;;;;4.68;2.75;;;16.60;99.90;;;;;;5068032;28;20109;-72
2022/11/19 03:09:52;;;;;;;4.15;2.92;;;16.60;99.90;;;;;;5050033;28;20544;-72
2022/11/19 03:12:39;;;;;;;7.32;3.03;;;16.60;99.90;;;;;;5051206;28;20036;-73
2022/11/19 03:18:28;;;;;;;4.68;2.28;;;16.60;99.90;;;;;;5070357;28;20179;-72
2022/11/19 03:21:53;;;;;;;6.15;2.92;;;16.60;99.90;;;;;;5053447;28;20183;-72
2022/11/19 03:24:29;;;;;;;6.40;2.97;;;16.60;99.90;;;;;;5008496;28;20046;-72
2022/11/19 03:27:06;;;;;;;7.47;3.03;;;16.50;99.90;;;;;;4976504;28;20081;-72
2022/11/19 03:29:37;;;;;;;6.72;2.30;;;16.40;99.90;;;;;;5038168;28;20512;-72
2022/11/19 03:32:10;;;;;;;5.00;2.63;;;16.30;99.90;;;;;;5069536;28;20147;-72
2022/11/19 03:34:40;;;;;;;7.63;2.85;;;16.20;99.90;;;;;;5069631;28;20128;-72
2022/11/19 03:37:09;;;;;;;9.27;3.38;;;16.20;99.90;;;;;;5052859;28;20060;-72
2022/11/19 03:39:39;;;;;;;8.68;3.03;;;16.10;99.90;;;;;;5070851;28;20048;-72
2022/11/19 03:42:11;;;;;;;5.90;2.72;;;15.90;99.90;;;;;;5069273;28;20131;-72
2022/11/19 03:45:05;;;;;;;4.32;2.65;;;15.90;99.90;;;;;;5052650;28;20056;-72
2022/11/19 03:47:35;;;;;;;6.47;2.90;;;15.80;99.90;;;;;;5061783;28;20053;-72
2022/11/19 03:50:27;;;;;;;8.13;3.08;;;15.90;99.90;;;;;;5065575;28;20041;-72
2022/11/19 03:52:56;;;;;;;4.97;3.20;;;15.90;99.90;;;;;;5052608;28;20410;-72
2022/11/19 03:55:35;;;;;;;7.47;4.03;;;15.80;99.90;;;;;;5068591;28;20106;-71
2022/11/19 03:58:05;;;;;;;8.00;3.42;;;15.70;99.90;;;;;;5065758;28;20089;-72
2022/11/19 04:00:32;;;;;;;6.88;3.05;;;15.60;99.90;;;;;;5069939;28;20525;-72
2022/11/19 04:03:00;;;;;;;9.35;3.70;;;15.50;99.90;;;;;;5060175;28;20688;-72
2022/11/19 04:05:27;;;;;;;6.13;3.28;;;15.50;99.90;;;;;;5068751;28;20062;-72
2022/11/19 04:07:56;;;;;;;4.82;2.70;;;15.50;99.90;;;;;;5069944;28;20482;-72
2022/11/19 04:10:24;;;;;;;9.60;4.40;;;15.40;99.90;;;;;;5068846;28;20044;-72
2022/11/19 04:12:51;;;;;;;6.82;3.20;;;15.40;99.90;;;;;;5069069;28;20075;-71
2022/11/19 04:15:19;;;;;;;9.15;3.85;;;15.30;99.90;;;;;;5068649;28;20122;-72
2022/11/19 04:17:46;;;;;;;7.80;3.95;;;15.30;99.90;;;;;;5068669;28;20147;-72
2022/11/19 04:20:14;;;;;;;8.55;3.42;;;15.30;99.90;;;;;;5035670;28;20048;-72
2022/11/19 04:22:42;;;;;;;6.38;3.42;;;15.40;99.90;;;;;;5067917;28;20094;-72
2022/11/19 04:25:10;;;;;;;9.63;3.55;;;15.40;99.90;;;;;;5068415;28;20068;-71
2022/11/19 04:27:37;;;;;;;13.02;3.28;;;15.40;99.90;;;;;;5068049;28;20138;-72
2022/11/19 04:30:05;;;;;;;7.47;2.58;;;15.50;99.90;;;;;;5068603;28;20047;-72
2022/11/19 04:32:33;;;;;;;8.38;2.83;;;15.40;99.90;;;;;;5068469;28;20049;-72
2022/11/19 04:35:00;;;;;;;5.68;3.08;;;15.50;99.90;;;;;;5051430;28;20147;-72
2022/11/19 04:37:29;;;;;;;6.30;2.92;;;15.40;99.90;;;;;;5069150;28;20146;-73
2022/11/19 04:39:57;;;;;;;7.68;3.70;;;15.40;99.90;;;;;;5051259;28;20048;-72
2022/11/19 04:42:25;;;;;;;4.93;2.83;;;15.50;99.90;;;;;;5050922;28;20048;-72
2022/11/19 04:44:52;;;;;;;5.72;3.10;;;15.40;99.90;;;;;;5071206;28;20490;-72
2022/11/19 04:47:20;;;;;;;5.88;3.35;;;15.40;99.90;;;;;;5071249;28;20139;-72
2022/11/19 04:49:48;;;;;;;8.27;2.97;;;15.40;99.90;;;;;;5089070;28;20490;-72
2022/11/19 04:52:15;;;;;;;5.10;2.05;;;15.50;99.90;;;;;;5089582;28;20036;-72
2022/11/19 04:54:43;;;;;;;6.50;2.95;;;15.50;99.90;;;;;;5070992;28;20070;-72
2022/11/19 04:57:10;;;;;;;8.98;3.22;;;15.50;99.90;;;;;;5069785;28;20048;-72
2022/11/19 04:59:38;;;;;;;7.88;2.67;;;15.50;99.90;;;;;;5071161;28;20143;-73
2022/11/19 05:02:05;;;;;;;4.03;2.28;;;15.50;99.90;;;;;;5054596;28;20036;-72
2022/11/19 05:04:33;;;;;;;4.40;2.25;;;15.50;99.90;;;;;;5054084;28;20144;-72
2022/11/19 05:07:00;;;;;;;7.15;2.90;;;15.60;99.90;;;;;;5053588;28;20105;-72
2022/11/19 05:09:28;;;;;;;5.65;2.40;;;15.60;99.90;;;;;;5070871;28;20048;-72
2022/11/19 05:11:55;;;;;;;8.02;2.35;;;15.60;99.90;;;;;;5088905;28;20047;-72
2022/11/19 05:14:23;;;;;;;6.80;2.60;;;15.50;99.90;;;;;;5070787;28;20122;-73
2022/11/19 05:16:53;;;;;;;7.95;2.88;;;15.50;99.90;;;;;;5054688;28;20056;-72
2022/11/19 05:19:20;;;;;;;6.35;2.70;;;15.50;99.90;;;;;;5070678;28;20048;-72
2022/11/19 05:21:48;;;;;;;6.47;2.75;;;15.60;99.90;;;;;;5054308;28;20044;-72
2022/11/19 05:24:15;;;;;;;5.28;2.85;;;15.60;99.90;;;;;;5070650;28;20047;-72
2022/11/19 05:26:43;;;;;;;7.63;3.35;;;15.60;99.90;;;;;;5088919;28;20090;-72
2022/11/19 05:29:10;;;;;;;2.92;2.03;;;15.60;99.90;;;;;;5070875;28;20081;-72
2022/11/19 05:31:38;;;;;;;4.78;2.15;;;15.50;99.90;;;;;;5070358;28;20429;-72
2022/11/19 05:34:05;;;;;;;4.88;2.50;;;15.50;99.90;;;;;;5053422;28;20056;-72
2022/11/19 05:36:32;;;;;;;3.38;2.58;;;15.50;99.90;;;;;;5072086;28;20046;-72
2022/11/19 05:39:00;;;;;;;5.07;2.42;;;15.50;99.90;;;;;;5054519;28;20443;-72
2022/11/19 05:41:27;;;;;;;5.88;2.45;;;15.50;99.90;;;;;;5070909;28;20040;-72
2022/11/19 05:43:55;;;;;;;6.00;2.50;;;15.50;99.90;;;;;;5037107;28;20063;-72
2022/11/19 05:46:23;;;;;;;4.32;2.75;;;15.40;99.90;;;;;;5088707;28;20075;-72
2022/11/19 05:48:50;;;;;;;5.82;2.92;;;15.30;99.90;;;;;;5053694;28;20459;-72
2022/11/19 05:51:18;;;;;;;5.55;2.53;;;15.30;99.90;;;;;;5037277;28;20497;-72
2022/11/19 05:53:45;;;;;;;7.60;3.20;;;15.20;99.90;;;;;;5052737;28;20062;-72
2022/11/19 05:56:13;;;;;;;6.15;3.30;;;15.20;99.90;;;;;;5066853;28;20044;-72
2022/11/19 05:58:40;;;;;;;6.25;3.33;;;15.20;99.90;;;;;;5068051;28;20146;-73
2022/11/19 06:01:08;;;;;;;6.65;2.63;;;15.40;99.90;;;;;;5068934;28;20035;-72
2022/11/19 06:03:35;;;;;;;7.22;3.50;;;15.70;99.90;;;;;;5066598;28;20102;-73
2022/11/19 06:06:03;;;;;;;7.20;3.05;;;15.80;99.90;;;;;;5087242;28;20158;-72
2022/11/19 06:08:31;;;;;;;6.13;3.65;;;15.80;99.90;;;;;;5061449;28;20047;-73
2022/11/19 06:11:03;;;;;;;8.65;4.53;;;16.20;99.90;;;;;;5030762;28;20055;-73
2022/11/19 06:13:30;;;;;;;4.00;2.33;;;16.60;99.90;;;;;;5074611;28;20044;-73
2022/11/19 06:15:58;;;;;;;6.90;2.92;;;17.20;99.90;;;;;;5032130;28;20101;-74
2022/11/19 06:18:26;;;;;;;8.50;3.63;;;17.90;99.90;;;;;;5065923;28;20044;-73
2022/11/19 06:20:53;;;;;;;7.60;3.40;;;18.50;99.90;;;;;;5069112;28;20047;-73
2022/11/19 06:23:21;;;;;;;8.45;3.85;;;19.00;99.90;;;;;;5068548;28;20036;-73
2022/11/19 06:25:49;;;;;;;8.93;2.83;;;19.30;99.90;;;;;;5069136;28;20170;-73
2022/11/19 06:28:17;;;;;;;7.15;3.17;;;19.90;99.90;;;;;;5066245;28;20041;-72
2022/11/19 06:30:44;;;;;;;5.82;2.90;;;20.50;99.90;;;;;;5067321;28;20680;-73
2022/11/19 06:33:13;;;;;;;9.38;3.65;;;20.70;99.90;;;;;;5033375;28;20047;-73
2022/11/19 06:35:41;;;;;;;8.20;2.65;;;21.10;99.90;;;;;;5087610;28;20059;-72
2022/11/19 06:38:08;;;;;;;5.03;2.47;;;21.00;99.90;;;;;;5062864;28;20557;-73
2022/11/19 06:40:36;;;;;;;9.80;3.08;;;20.70;99.90;;;;;;5062161;28;20080;-73
2022/11/19 06:43:03;;;;;;;15.20;2.85;;;20.30;99.90;;;;;;5027212;28;20048;-73
2022/11/19 06:45:33;;;;;;;4.78;2.70;;;20.50;99.90;;;;;;5086962;28;20052;-73
2022/11/19 06:48:00;;;;;;;4.63;1.90;;;21.10;99.90;;;;;;5065932;28;20044;-73
2022/11/19 06:50:28;;;;;;;12.07;3.78;;;21.20;99.90;;;;;;5084988;28;20504;-73
2022/11/19 06:52:56;;;;;;;6.55;3.13;;;21.20;99.90;;;;;;5066275;28;20048;-73
2022/11/19 06:55:24;;;;;;;9.10;2.63;;;21.20;99.90;;;;;;5042944;28;20036;-72
2022/11/19 06:57:51;;;;;;;6.90;2.30;;;21.00;99.90;;;;;;5049632;28;20033;-73
2022/11/19 07:00:19;;;;;;;5.15;2.75;;;21.30;99.90;;;;;;5067317;28;20047;-72
2022/11/19 07:02:46;;;;;;;11.07;3.67;;;21.50;99.90;;;;;;5050022;28;20049;-73
2022/11/19 07:05:14;;;;;;;4.32;2.70;;;21.20;99.90;;;;;;5053980;28;20048;-72
2022/11/19 07:07:41;;;;;;;7.63;2.28;;;20.90;99.90;;;;;;5068122;28;20122;-72
2022/11/19 07:10:09;;;;;;;7.03;1.95;;;20.60;99.90;;;;;;5083016;28;20148;-73
2022/11/19 07:12:37;;;;;;;4.20;2.17;;;20.40;99.90;;;;;;5084306;28;20577;-72
2022/11/19 07:15:05;;;;;;;7.10;2.72;;;19.90;99.90;;;;;;5058466;28;20046;-72
2022/11/19 07:17:32;;;;;;;5.68;3.63;;;19.50;99.90;;;;;;5067458;28;20394;-73
2022/11/19 07:20:00;;;;;;;4.72;2.45;;;19.10;99.90;;;;;;5051586;28;20044;-73
2022/11/19 07:22:28;;;;;;;5.97;2.40;;;18.80;99.90;;;;;;5051517;28;20115;-73
2022/11/19 07:24:56;;;;;;;5.90;2.08;;;18.70;99.90;;;;;;5050124;28;20688;-73
2022/11/19 07:27:23;;;;;;;4.53;2.88;;;18.70;99.90;;;;;;5069225;28;20162;-72
2022/11/19 07:29:51;;;;;;;8.27;2.53;;;18.70;99.90;;;;;;5066674;28;20044;-72
2022/11/19 07:32:19;;;;;;;6.53;1.83;;;18.70;99.90;;;;;;5054998;28;20056;-73
2022/11/19 07:34:46;;;;;;;4.32;2.35;;;18.60;99.90;;;;;;5070238;28;20652;-73
2022/11/19 07:37:14;;;;;;;3.97;2.05;;;18.50;99.90;;;;;;5069409;28;20036;-72
2022/11/19 07:39:42;;;;;;;5.20;1.98;;;18.40;99.90;;;;;;5069779;28;20143;-73
2022/11/19 07:44:55;;;;;;;5.67;2.73;;;18.30;99.90;;;;;;5051884;28;20157;-74
2022/11/19 07:47:23;;;;;;;5.85;2.28;;;18.30;99.90;;;;;;5054915;28;20150;-72
2022/11/19 07:49:50;;;;;;;3.42;1.48;;;18.40;99.90;;;;;;5086932;28;20043;-72
2022/11/19 07:52:18;;;;;;;3.40;1.85;;;18.40;99.90;;;;;;5079872;28;20071;-73
2022/11/19 07:54:46;;;;;;;4.53;1.95;;;18.40;99.90;;;;;;5073946;28;20132;-74
2022/11/19 07:57:13;;;;;;;5.57;2.78;;;18.40;99.90;;;;;;5056404;28;20060;-74
2022/11/19 07:59:41;;;;;;;5.40;1.83;;;18.50;99.90;;;;;;5066172;28;20470;-73
2022/11/19 08:02:11;;;;;;;5.88;1.92;;;18.70;99.90;;;;;;5050990;28;20119;-75
2022/11/19 08:04:39;;;;;;;4.20;1.77;;;18.90;99.90;;;;;;5068748;28;20071;-73
2022/11/19 08:07:07;;;;;;;3.95;1.70;;;19.00;99.90;;;;;;5089846;28;20048;-72
2022/11/19 08:09:36;;;;;;;5.90;1.80;;;19.10;99.90;;;;;;5086026;28;20067;-73
2022/11/19 08:12:04;;;;;;;6.13;1.88;;;19.20;99.90;;;;;;5055174;28;20127;-73
2022/11/19 08:14:32;;;;;;;3.13;1.58;;;19.20;99.90;;;;;;5079387;28;20040;-73
2022/11/19 08:19:59;;;;;;;3.92;2.17;;;19.40;99.90;;;;;;5041553;28;20427;-73
2022/11/19 08:22:26;;;;;;;5.15;1.90;;;19.80;99.90;;;;;;5055038;28;20050;-73
2022/11/19 08:24:54;;;;;;;7.32;1.88;;;20.10;99.90;;;;;;5051872;28;20814;-73
2022/11/19 08:27:21;;;;;;;4.40;1.98;;;20.40;99.90;;;;;;5080756;28;20052;-73
2022/11/19 08:29:49;;;;;;;7.55;2.47;;;20.60;99.90;;;;;;5055601;28;20086;-73
2022/11/19 08:32:17;;;;;;;4.68;2.28;;;20.50;99.90;;;;;;5085062;28;20502;-74
2022/11/19 08:34:44;;;;;;;5.03;2.92;;;20.40;99.90;;;;;;5068215;28;20137;-73
2022/11/19 08:37:12;;;;;;;7.38;2.53;;;20.20;99.90;;;;;;5070891;28;20090;-73
2022/11/19 08:39:40;;;;;;;5.18;1.95;;;20.00;99.90;;;;;;5084853;28;20072;-74
2022/11/19 08:44:55;;;;;;;7.13;2.75;;;19.80;99.90;;;;;;5067431;28;20135;-73
2022/11/19 08:47:22;;;;;;;4.78;1.70;;;19.70;99.90;;;;;;5068371;28;20127;-73
2022/11/19 08:49:50;;;;;;;3.88;1.75;;;19.70;99.90;;;;;;5087672;28;20350;-71
2022/11/19 08:52:17;;;;;;;4.03;1.73;;;19.70;99.90;;;;;;5055080;28;20071;-71
2022/11/19 08:54:45;;;;;;;6.97;2.67;;;19.60;99.90;;;;;;5071371;28;20044;-71
2022/11/19 08:57:12;;;;;;;9.23;2.60;;;19.60;99.90;;;;;;5065064;28;20055;-71
2022/11/19 08:59:40;;;;;;;6.97;3.88;;;19.60;99.90;;;;;;5068421;28;20044;-70
2022/11/19 09:02:10;;;;;;;6.20;1.90;;;19.60;99.90;;;;;;5051650;28;20093;-70
2022/11/19 09:04:37;;;;;;;4.15;2.20;;;19.60;99.90;;;;;;5088460;28;20126;-71
2022/11/19 09:07:05;;;;;;;7.57;2.80;;;19.60;99.90;;;;;;5070211;28;20089;-70
2022/11/19 09:09:32;;;;;;;3.60;1.55;;;19.60;99.90;;;;;;5070421;28;20166;-72
2022/11/19 09:12:00;;;;;;;3.05;1.80;;;19.60;99.90;;;;;;5043548;28;20508;-71
2022/11/19 09:14:28;;;;;;;4.75;1.88;;;19.60;99.90;;;;;;5046041;28;20044;-71
2022/11/19 09:16:55;;;;;;;4.47;1.75;;;19.60;99.90;;;;;;5053518;28;20083;-72
2022/11/19 09:19:23;;;;;;;3.20;1.92;;;19.70;99.90;;;;;;5065967;28;20051;-71
2022/11/19 09:21:51;;;;;;;2.95;1.55;;;19.70;99.90;;;;;;5072225;28;20040;-70
2022/11/19 09:24:18;;;;;;;5.65;2.53;;;19.70;99.90;;;;;;5048289;28;20048;-71
2022/11/19 09:26:46;;;;;;;7.28;2.50;;;19.80;99.90;;;;;;5033062;28;20044;-71
2022/11/19 09:29:18;;;;;;;8.10;1.92;;;19.90;99.90;;;;;;5058033;28;20048;-73
2022/11/19 09:31:45;;;;;;;2.88;1.73;;;20.00;99.90;;;;;;5086020;28;20604;-71
2022/11/19 09:34:13;;;;;;;4.40;1.73;;;20.00;99.90;;;;;;5058908;28;20052;-71
2022/11/19 09:36:40;;;;;;;4.20;1.60;;;20.10;99.90;;;;;;5075620;28;20189;-72
2022/11/19 09:39:09;;;;;;;7.68;2.47;;;20.00;99.90;;;;;;5055547;28;20052;-72
2022/11/19 09:42:00;;;;;;;4.43;2.95;;;19.90;99.90;;;;;;5054277;28;20044;-70
2022/11/19 09:44:31;;;;;;;3.67;2.00;;;19.80;99.90;;;;;;5063480;28;20078;-70
2022/11/19 09:46:58;;;;;;;6.05;1.92;;;19.70;99.90;;;;;;5046921;28;20067;-70
2022/11/19 09:50:01;;;;;;;8.60;4.90;;;19.70;99.90;;;;;;5068839;28;20048;-71
2022/11/19 09:52:34;;;;;;;3.78;1.88;;;19.70;99.90;;;;;;5053163;28;20441;-72
2022/11/19 09:55:02;;;;;;;8.73;2.13;;;19.70;99.90;;;;;;5087082;28;20077;-72
2022/11/19 09:57:48;;;;;;;3.40;1.70;;;19.80;99.90;;;;;;5069903;28;20070;-72
2022/11/19 10:00:19;;;;;;;5.50;2.13;;;20.10;99.90;;;;;;5050644;28;20044;-72
2022/11/19 10:02:47;;;;;;;4.65;1.80;;;20.40;99.90;;;;;;5036965;28;20051;-71
2022/11/19 10:05:22;;;;;;;5.25;2.10;;;20.40;99.90;;;;;;5043747;28;20042;-70
2022/11/19 10:08:18;;;;;;;4.75;2.05;;;20.50;99.90;;;;;;5053707;28;20146;-71
2022/11/19 10:11:12;;;;;;;6.13;2.42;;;20.50;99.90;;;;;;5050024;28;20057;-70
2022/11/19 10:14:08;;;;;;;11.57;2.67;;;20.50;99.90;;;;;;5040751;28;20051;-71
2022/11/19 10:16:36;;;;;;;8.10;2.20;;;20.70;99.90;;;;;;5017571;28;20451;-71
2022/11/19 10:19:35;;;;;;;9.40;3.17;;;20.60;99.90;;;;;;5042558;28;20059;-71
2022/11/19 10:22:29;;;;;;;4.93;2.72;;;20.50;99.90;;;;;;5066876;28;20044;-71
2022/11/19 10:25:03;;;;;;;5.43;2.20;;;20.50;99.90;;;;;;5069408;28;20135;-71
2022/11/19 10:27:39;;;;;;;7.38;3.00;;;20.50;99.90;;;;;;5070084;28;20048;-71
2022/11/19 10:30:19;;;;;;;12.00;3.05;;;20.50;99.90;;;;;;5017548;28;20058;-71
2022/11/19 10:32:57;;;;;;;10.63;2.65;;;20.80;99.90;;;;;;5017205;28;20068;-71
2022/11/19 10:35:49;;;;;;;10.25;2.70;;;21.00;99.90;;;;;;5017639;28;20103;-71
2022/11/19 10:38:49;;;;;;;9.02;4.22;;;21.20;99.90;;;;;;5055571;28;20040;-72
2022/11/19 10:41:22;;;;;;;8.65;3.50;;;21.40;99.90;;;;;;5037353;28;20067;-72
2022/11/19 10:44:36;;;;;;;8.77;3.65;;;21.30;99.90;;;;;;5088157;28;20394;-72
2022/11/19 10:47:24;;;;;;;10.73;4.28;;;21.20;99.90;;;;;;5070147;28;20131;-72
2022/11/19 10:49:53;;;;;;;11.70;3.95;;;21.10;99.90;;;;;;5065049;28;20043;-71
2022/11/19 10:52:30;;;;;;;12.35;3.80;;;21.10;99.90;;;;;;5061724;28;20044;-72
2022/11/19 10:55:04;;;;;;;15.07;4.55;;;21.20;99.90;;;;;;5073547;28;20045;-71
2022/11/19 10:57:32;;;;;;;8.30;3.83;;;21.30;99.90;;;;;;5062668;28;20590;-72
2022/11/19 11:00:00;;;;;;;5.90;2.90;;;21.10;99.90;;;;;;5064914;28;20510;-71
2022/11/19 11:02:38;;;;;;;11.63;4.20;;;20.80;99.90;;;;;;5066752;28;20044;-71
2022/11/19 11:05:13;;;;;;;10.60;3.63;;;20.60;99.90;;;;;;5059383;28;20036;-72
2022/11/19 11:07:53;;;;;;;9.18;3.90;;;20.50;99.90;;;;;;5052154;28;20036;-71
2022/11/19 11:10:36;;;;;;;9.65;4.20;;;20.40;99.90;;;;;;5036514;28;20049;-73
2022/11/19 11:16:12;;;;;;;7.57;3.17;;;20.40;99.90;;;;;;5069841;28;20051;-72
2022/11/19 11:18:40;;;;;;;7.88;3.72;;;20.40;99.90;;;;;;5059870;28;20036;-72
2022/11/19 11:21:22;;;;;;;10.07;3.28;;;20.50;99.90;;;;;;5088077;28;20040;-72
2022/11/19 11:23:52;;;;;;;11.25;3.90;;;20.50;99.90;;;;;;5055469;28;20671;-72
2022/11/19 11:26:28;;;;;;;10.07;3.78;;;20.40;99.90;;;;;;5071734;28;20417;-72
2022/11/19 11:29:03;;;;;;;7.88;3.72;;;20.40;99.90;;;;;;5055427;28;20048;-71
2022/11/19 11:31:36;;;;;;;12.48;3.78;;;20.40;99.90;;;;;;5043980;28;20078;-71
2022/11/19 11:34:12;;;;;;;8.45;4.15;;;20.60;99.90;;;;;;5075944;28;20067;-71
2022/11/19 11:36:41;;;;;;;7.35;3.60;;;21.00;99.90;;;;;;5109544;28;20039;-71
2022/11/19 11:39:43;;;;;;;16.45;3.63;;;21.20;99.90;;;;;;5059339;28;20204;-72
2022/11/19 11:42:17;;;;;;;10.07;5.07;;;21.40;99.90;;;;;;5034209;28;20048;-71
2022/11/19 11:45:06;;;;;;;8.82;3.92;;;21.40;99.90;;;;;;5033577;28;20711;-71
2022/11/19 11:47:38;;;;;;;8.20;3.38;;;21.50;99.90;;;;;;5050665;28;20072;-71
2022/11/19 11:50:13;;;;;;;9.00;3.17;;;21.60;99.90;;;;;;5066253;28;20063;-72
2022/11/19 11:52:44;;;;;;;8.97;2.80;;;21.60;99.90;;;;;;5066955;28;20045;-71
2022/11/19 11:55:30;;;;;;;8.98;3.00;;;21.80;99.90;;;;;;5067419;28;20048;-72
2022/11/19 11:58:04;;;;;;;6.22;3.42;;;21.90;99.90;;;;;;5051356;28;20648;-71
2022/11/19 12:00:39;;;;;;;6.43;2.67;;;21.60;99.90;;;;;;5053472;28;20048;-72
2022/11/19 12:03:18;;;;;;;10.25;3.20;;;21.40;99.90;;;;;;5070082;28;20041;-72
2022/11/19 12:06:11;;;;;;;7.72;2.90;;;21.20;99.90;;;;;;5068715;28;20048;-73
2022/11/19 12:09:01;;;;;;;7.15;2.78;;;21.40;99.90;;;;;;5074679;28;20052;-72
2022/11/19 12:11:54;;;;;;;12.00;4.00;;;21.60;99.90;;;;;;5036108;28;20705;-72
2022/11/19 12:14:30;;;;;;;11.57;4.05;;;21.80;99.90;;;;;;5069539;28;20139;-72
2022/11/19 12:17:16;;;;;;;9.23;3.20;;;21.70;99.90;;;;;;5035720;28;20083;-72
2022/11/19 12:19:52;;;;;;;8.07;3.15;;;21.70;99.90;;;;;;5069907;28;20048;-72
2022/11/19 12:22:46;;;;;;;12.07;3.88;;;21.50;99.90;;;;;;5069789;28;20089;-71
2022/11/19 12:25:26;;;;;;;13.73;3.78;;;21.30;99.90;;;;;;5054081;28;20052;-72
2022/11/19 12:28:34;;;;;;;7.28;3.40;;;21.10;99.90;;;;;;5053232;28;20083;-72
2022/11/19 12:31:42;;;;;;;11.38;4.32;;;21.10;99.90;;;;;;5052738;28;20497;-73
2022/11/19 12:34:34;;;;;;;9.02;3.67;;;21.00;99.90;;;;;;5052491;28;20060;-72
2022/11/19 12:37:19;;;;;;;7.85;2.60;;;21.10;99.90;;;;;;5052273;28;20075;-73
2022/11/19 12:39:49;;;;;;;8.43;4.93;;;21.20;99.90;;;;;;5036609;28;20766;-72
2022/11/19 12:42:37;;;;;;;10.13;3.40;;;21.30;99.90;;;;;;5048709;28;20494;-72
2022/11/19 12:45:24;;;;;;;5.97;2.47;;;21.40;99.90;;;;;;5022620;28;20777;-72
2022/11/19 12:48:28;;;;;;;12.07;5.13;;;21.40;99.90;;;;;;5057470;28;20123;-71
2022/11/19 12:50:56;;;;;;;10.85;4.95;;;21.50;99.90;;;;;;5064994;28;20425;-71
2022/11/19 12:53:30;;;;;;;13.85;3.70;;;21.30;99.90;;;;;;5082194;28;20072;-72
2022/11/19 12:56:24;;;;;;;10.57;3.90;;;21.20;99.90;;;;;;5046682;28;20128;-72
2022/11/19 12:59:01;;;;;;;12.70;4.78;;;21.00;99.90;;;;;;5063402;28;20044;-71
2022/11/19 13:01:35;;;;;;;57.90;35.45;;;20.90;99.90;;;;;;5034160;28;20041;-73
2022/11/19 13:04:28;;;;;;;11.55;5.75;;;20.90;99.90;;;;;;5048611;28;20044;-72
2022/11/19 13:07:04;;;;;;;15.63;4.45;;;20.90;99.90;;;;;;5047769;28;20469;-72
2022/11/19 13:09:34;;;;;;;;;;;20.80;99.90;;;;;;5049391;28;20116;-73
2022/11/19 13:12:07;;;;;;;10.82;4.63;;;20.70;99.90;;;;;;5065942;28;19920;-72
2022/11/19 13:14:41;;;;;;;54.65;30.33;;;20.60;99.90;;;;;;5034014;28;20791;-73
2022/11/19 13:17:17;;;;;;;13.90;6.07;;;20.60;99.90;;;;;;5059618;28;20098;-73
2022/11/19 13:19:52;;;;;;;21.35;9.20;;;20.60;99.90;;;;;;5061003;28;20059;-72
2022/11/19 13:22:35;;;;;;;15.30;8.55;;;20.60;99.90;;;;;;5048927;28;20061;-72
2022/11/19 13:25:38;;;;;;;126.07;78.18;;;20.50;99.90;;;;;;5050490;28;20567;-72
2022/11/19 13:28:17;;;;;;;59.42;34.72;;;20.50;99.90;;;;;;5044865;28;20497;-72
2022/11/19 13:30:48;;;;;;;132.43;70.85;;;20.50;99.90;;;;;;5083303;28;20043;-72
2022/11/19 13:33:31;;;;;;;84.90;47.50;;;20.40;99.90;;;;;;5065831;28;20051;-73
2022/11/19 13:36:18;;;;;;;102.72;54.67;;;20.40;99.90;;;;;;5048652;28;20056;-72
2022/11/19 13:38:54;;;;;;;160.77;80.93;;;20.40;99.90;;;;;;5062462;28;20108;-73
2022/11/19 13:41:34;;;;;;;278.85;153.85;;;20.30;99.90;;;;;;5054913;28;20043;-73